createdAt,value
2022-08-11T00:00:39.847Z,0.00
2022-08-11T00:01:39.841Z,0.00
2022-08-11T00:02:40.064Z,0.00
2022-08-11T00:03:43.478Z,0.00
2022-08-11T00:04:39.801Z,0.00
2022-08-11T00:05:39.793Z,0.00
2022-08-11T00:06:39.789Z,0.00
2022-08-11T00:07:39.773Z,0.00
2022-08-11T00:08:39.769Z,0.00
2022-08-11T00:09:40.286Z,0.00
2022-08-11T00:10:39.734Z,0.00
2022-08-11T00:11:39.727Z,0.00
2022-08-11T00:12:39.794Z,0.00
2022-08-11T00:13:39.703Z,0.00
2022-08-11T00:14:39.703Z,0.00
2022-08-11T00:15:39.697Z,0.00
2022-08-11T00:16:39.681Z,0.00
2022-08-11T00:17:39.689Z,0.00
2022-08-11T00:18:39.650Z,0.00
2022-08-11T00:20:13.392Z,0.00
2022-08-11T00:20:39.661Z,0.00
2022-08-11T00:22:04.707Z,0.00
2022-08-11T00:22:39.969Z,0.00
2022-08-11T00:23:39.602Z,0.00
2022-08-11T00:24:52.055Z,0.00
2022-08-11T00:25:39.583Z,0.00
2022-08-11T00:26:39.565Z,0.00
2022-08-11T00:27:39.556Z,0.00
2022-08-11T00:28:39.546Z,0.00
2022-08-11T00:29:51.824Z,0.00
2022-08-11T00:30:39.557Z,0.00
2022-08-11T00:31:39.514Z,0.00
2022-08-11T00:32:39.665Z,0.00
2022-08-11T00:33:44.085Z,0.00
2022-08-11T00:34:39.490Z,0.00
2022-08-11T00:35:53.664Z,0.00
2022-08-11T00:36:39.505Z,0.00
2022-08-11T00:37:39.459Z,0.00
2022-08-11T00:38:39.455Z,0.00
2022-08-11T00:39:39.471Z,0.00
2022-08-11T00:40:39.421Z,0.00
2022-08-11T00:41:39.423Z,0.00
2022-08-11T00:42:39.547Z,0.00
2022-08-11T00:43:39.407Z,0.00
2022-08-11T00:44:39.381Z,0.00
2022-08-11T00:45:39.373Z,0.00
2022-08-11T00:46:39.370Z,0.00
2022-08-11T00:47:39.370Z,0.00
2022-08-11T00:48:39.349Z,0.00
2022-08-11T00:49:39.340Z,0.00
2022-08-11T00:50:39.308Z,0.00
2022-08-11T00:52:03.962Z,0.00
2022-08-11T00:52:39.595Z,0.00
2022-08-11T00:53:39.291Z,0.00
2022-08-11T00:54:39.269Z,0.00
2022-08-11T00:55:39.270Z,0.00
2022-08-11T00:56:39.238Z,0.00
2022-08-11T00:57:39.250Z,0.00
2022-08-11T00:58:39.242Z,0.00
2022-08-11T00:59:39.251Z,0.00
2022-08-11T01:00:39.289Z,0.00
2022-08-11T01:01:39.204Z,0.00
2022-08-11T01:02:39.240Z,0.00
2022-08-11T01:03:39.176Z,0.00
2022-08-11T01:04:39.163Z,0.00
2022-08-11T01:05:39.191Z,0.00
2022-08-11T01:06:39.141Z,0.00
2022-08-11T01:08:01.838Z,0.00
2022-08-11T01:08:39.131Z,0.00
2022-08-11T01:09:39.127Z,0.00
2022-08-11T05:02:05.625Z,5.62
2022-08-11T05:03:06.636Z,5.62
2022-08-11T05:04:06.525Z,5.62
2022-08-11T05:05:06.523Z,5.62
2022-08-11T05:06:06.529Z,5.62
2022-08-11T05:07:06.527Z,5.62
2022-08-11T05:08:06.494Z,5.62
2022-08-11T05:09:06.478Z,5.62
2022-08-11T05:10:06.494Z,5.62
2022-08-11T05:11:06.504Z,5.62
2022-08-11T05:12:06.441Z,5.62
2022-08-11T05:13:06.459Z,5.62
2022-08-11T05:14:06.427Z,5.62
2022-08-11T05:15:06.417Z,5.62
2022-08-11T05:16:06.426Z,5.62
2022-08-11T05:17:06.402Z,5.62
2022-08-11T05:18:06.391Z,5.62
2022-08-11T05:19:12.396Z,5.62
2022-08-11T05:20:06.392Z,5.62
2022-08-11T05:21:06.361Z,5.62
2022-08-11T05:22:06.344Z,5.62
2022-08-11T05:23:06.330Z,5.62
2022-08-11T05:24:06.321Z,5.62
2022-08-11T05:25:06.312Z,5.62
2022-08-11T05:26:44.927Z,5.62
2022-08-11T05:27:11.310Z,5.62
2022-08-11T05:28:06.302Z,5.62
2022-08-11T05:29:19.271Z,5.62
2022-08-11T05:30:06.265Z,5.62
2022-08-11T05:31:06.269Z,5.62
2022-08-11T05:32:06.262Z,5.62
2022-08-11T05:33:06.223Z,5.62
2022-08-11T05:34:06.219Z,5.62
2022-08-11T05:35:06.202Z,5.62
2022-08-11T05:36:06.190Z,5.62
2022-08-11T05:37:25.122Z,5.62
2022-08-11T05:38:06.180Z,5.62
2022-08-11T05:39:06.165Z,5.62
2022-08-11T05:40:06.232Z,5.62
2022-08-11T05:41:06.147Z,5.62
2022-08-11T05:42:06.128Z,5.62
2022-08-11T05:43:06.161Z,5.62
2022-08-11T05:44:19.933Z,5.62
2022-08-11T05:45:15.409Z,5.62
2022-08-11T05:46:09.062Z,5.62
2022-08-11T05:47:06.086Z,5.62
2022-08-11T05:48:06.058Z,5.62
2022-08-11T05:49:06.084Z,5.62
2022-08-11T05:50:06.047Z,5.62
2022-08-11T05:51:10.370Z,5.62
2022-08-11T05:52:14.418Z,5.62
2022-08-11T05:53:09.112Z,5.62
2022-08-11T05:54:06.027Z,5.62
2022-08-11T05:55:07.216Z,5.62
2022-08-11T05:56:05.990Z,5.62
2022-08-11T05:57:05.976Z,5.62
2022-08-11T05:58:05.960Z,5.62
2022-08-11T05:59:05.958Z,5.62
2022-08-11T06:00:05.967Z,5.62
2022-08-11T06:01:06.059Z,5.62
2022-08-11T06:02:06.155Z,5.62
2022-08-11T06:03:05.910Z,5.62
2022-08-11T06:04:05.901Z,5.62
2022-08-11T06:05:05.887Z,5.62
2022-08-11T06:06:05.897Z,5.62
2022-08-11T06:07:05.875Z,5.62
2022-08-11T06:08:05.862Z,5.62
2022-08-11T06:09:05.847Z,5.62
2022-08-11T06:10:05.829Z,5.62
2022-08-11T06:11:05.815Z,5.62
2022-08-11T06:12:05.833Z,5.62
2022-08-11T06:13:05.825Z,5.62
2022-08-11T06:14:05.814Z,5.62
2022-08-11T06:15:05.788Z,5.62
2022-08-11T06:16:07.189Z,5.62
2022-08-11T06:17:05.764Z,5.62
2022-08-11T06:18:05.751Z,5.62
2022-08-11T06:19:05.746Z,5.62
2022-08-11T06:20:07.407Z,5.62
2022-08-11T06:21:05.724Z,11.25
2022-08-11T06:22:05.735Z,11.25
2022-08-11T06:23:05.717Z,11.25
2022-08-11T06:24:05.687Z,11.25
2022-08-11T06:25:05.677Z,11.25
2022-08-11T06:26:05.685Z,11.25
2022-08-11T06:27:13.828Z,11.25
2022-08-11T06:28:05.646Z,11.25
2022-08-11T06:29:05.685Z,11.25
2022-08-11T06:30:05.619Z,11.25
2022-08-11T06:31:05.607Z,11.25
2022-08-11T06:32:05.600Z,11.25
2022-08-11T06:33:05.589Z,11.25
2022-08-11T06:34:05.573Z,11.25
2022-08-11T06:35:05.577Z,11.25
2022-08-11T06:36:05.576Z,11.25
2022-08-11T06:37:05.550Z,11.25
2022-08-11T06:38:05.549Z,11.25
2022-08-11T06:39:05.542Z,11.25
2022-08-11T06:40:05.512Z,11.25
2022-08-11T06:41:05.523Z,11.25
2022-08-11T06:42:05.509Z,11.25
2022-08-11T06:43:05.515Z,11.25
2022-08-11T06:44:05.677Z,11.25
2022-08-11T06:45:05.489Z,11.25
2022-08-11T06:46:05.452Z,11.25
2022-08-11T06:47:05.440Z,11.25
2022-08-11T06:48:05.424Z,11.25
2022-08-11T06:49:05.418Z,11.25
2022-08-11T06:50:05.432Z,11.25
2022-08-11T06:51:05.410Z,11.25
2022-08-11T06:52:05.379Z,11.25
2022-08-11T06:53:05.381Z,11.25
2022-08-11T06:54:05.766Z,11.25
2022-08-11T06:55:05.359Z,11.25
2022-08-11T06:56:05.365Z,11.25
2022-08-11T06:58:05.327Z,11.25
2022-08-11T06:59:05.304Z,11.25
2022-08-11T07:00:05.304Z,11.25
2022-08-11T07:01:05.346Z,11.25
2022-08-11T07:02:05.303Z,11.25
2022-08-11T07:03:05.264Z,11.25
2022-08-11T07:04:05.251Z,11.25
2022-08-11T07:05:05.251Z,11.25
2022-08-11T07:06:05.234Z,11.25
2022-08-11T07:07:05.221Z,11.25
2022-08-11T07:08:33.938Z,11.25
2022-08-11T07:09:05.210Z,11.25
2022-08-11T07:10:05.205Z,11.25
2022-08-11T07:11:05.181Z,11.25
2022-08-11T07:12:05.194Z,11.25
2022-08-11T07:13:05.181Z,11.25
2022-08-11T07:14:05.154Z,11.25
2022-08-11T07:15:05.148Z,11.25
2022-08-11T07:16:11.702Z,11.25
2022-08-11T07:17:05.127Z,11.25
2022-08-11T07:18:05.140Z,11.25
2022-08-11T07:19:05.108Z,11.25
2022-08-11T07:20:05.107Z,11.25
2022-08-11T07:21:05.078Z,11.25
2022-08-11T07:22:05.192Z,11.25
2022-08-11T07:23:05.084Z,11.25
2022-08-11T07:24:05.071Z,11.25
2022-08-11T07:25:05.034Z,11.25
2022-08-11T07:26:05.022Z,11.25
2022-08-11T07:27:05.009Z,11.25
2022-08-11T07:28:05.007Z,11.25
2022-08-11T07:29:04.991Z,11.25
2022-08-11T07:30:05.005Z,11.25
2022-08-11T07:31:04.985Z,11.25
2022-08-11T07:32:04.970Z,11.25
2022-08-11T07:33:04.953Z,11.25
2022-08-11T07:34:10.243Z,11.25
2022-08-11T07:35:04.938Z,11.25
2022-08-11T07:36:04.962Z,11.25
2022-08-11T07:37:04.915Z,11.25
2022-08-11T07:38:07.252Z,11.25
2022-08-11T07:39:04.890Z,11.25
2022-08-11T07:40:04.966Z,11.25
2022-08-11T07:41:04.874Z,11.25
2022-08-11T07:42:04.880Z,11.25
2022-08-11T07:43:04.859Z,11.25
2022-08-11T07:44:04.841Z,11.25
2022-08-11T07:45:04.826Z,11.25
2022-08-11T07:46:04.814Z,11.25
2022-08-11T07:47:04.805Z,11.25
2022-08-11T07:48:04.808Z,11.25
2022-08-11T07:49:04.780Z,11.25
2022-08-11T07:50:04.768Z,11.25
2022-08-11T07:51:04.766Z,11.25
2022-08-11T07:52:04.744Z,11.25
2022-08-11T07:53:04.774Z,11.25
2022-08-11T07:54:16.558Z,11.25
2022-08-11T07:55:04.727Z,11.25
2022-08-11T07:56:04.712Z,11.25
2022-08-11T07:57:08.893Z,11.25
2022-08-11T07:58:16.191Z,11.25
2022-08-11T07:59:08.273Z,11.25
2022-08-11T08:00:05.176Z,11.25
2022-08-11T08:01:10.142Z,11.25
2022-08-11T08:02:04.734Z,11.25
2022-08-11T08:03:04.652Z,11.25
2022-08-11T08:04:04.628Z,11.25
2022-08-11T08:05:04.611Z,11.25
2022-08-11T08:06:04.608Z,11.25
2022-08-11T08:07:04.602Z,11.25
2022-08-11T08:08:04.582Z,11.25
2022-08-11T08:09:04.586Z,11.25
2022-08-11T08:10:04.576Z,11.25
2022-08-11T08:11:04.553Z,11.25
2022-08-11T08:12:04.532Z,11.25
2022-08-11T08:13:04.522Z,11.25
2022-08-11T08:14:04.525Z,11.25
2022-08-11T08:15:04.527Z,11.25
2022-08-11T08:16:04.525Z,11.25
2022-08-11T08:17:04.480Z,11.25
2022-08-11T08:18:10.098Z,11.25
2022-08-11T08:19:04.470Z,11.25
2022-08-11T08:20:04.462Z,11.25
2022-08-11T08:21:04.448Z,11.25
2022-08-11T08:22:11.970Z,11.25
2022-08-11T08:23:04.443Z,11.25
2022-08-11T08:24:04.416Z,11.25
2022-08-11T08:25:04.397Z,11.25
2022-08-11T08:26:04.449Z,11.25
2022-08-11T08:27:04.375Z,11.25
2022-08-11T08:28:04.371Z,11.25
2022-08-11T08:29:04.386Z,11.25
2022-08-11T08:30:04.347Z,11.25
2022-08-11T08:31:04.334Z,11.25
2022-08-11T08:32:04.332Z,11.25
2022-08-11T08:33:04.314Z,11.25
2022-08-11T08:34:04.311Z,11.25
2022-08-11T08:35:04.302Z,11.25
2022-08-11T08:36:04.301Z,11.25
2022-08-11T08:37:16.075Z,11.25
2022-08-11T08:38:04.273Z,11.25
2022-08-11T08:39:04.257Z,11.25
2022-08-11T08:40:04.242Z,11.25
2022-08-11T08:41:04.231Z,11.25
2022-08-11T08:42:04.237Z,11.25
2022-08-11T08:43:04.232Z,11.25
2022-08-11T08:44:27.817Z,11.25
2022-08-11T08:45:04.193Z,11.25
2022-08-11T08:46:04.207Z,11.25
2022-08-11T08:47:04.166Z,11.25
2022-08-11T08:48:04.155Z,11.25
2022-08-11T08:49:04.172Z,11.25
2022-08-11T08:50:04.138Z,11.25
2022-08-11T08:51:04.119Z,11.25
2022-08-11T08:52:26.496Z,16.88
2022-08-11T08:53:04.118Z,11.25
2022-08-11T08:54:04.091Z,11.25
2022-08-11T08:55:04.104Z,11.25
2022-08-11T08:56:04.075Z,11.25
2022-08-11T08:57:04.080Z,16.88
2022-08-11T08:58:04.075Z,11.25
2022-08-11T08:59:04.047Z,16.88
2022-08-11T09:00:04.028Z,16.88
2022-08-11T09:01:04.070Z,16.88
2022-08-11T09:02:04.043Z,11.25
2022-08-11T09:03:22.815Z,16.88
2022-08-11T09:04:10.770Z,16.88
2022-08-11T09:05:04.225Z,16.88
2022-08-11T09:06:03.969Z,16.88
2022-08-11T09:07:03.955Z,16.88
2022-08-11T09:08:03.984Z,16.88
2022-08-11T09:09:03.941Z,16.88
2022-08-11T09:10:03.926Z,16.88
2022-08-11T09:11:03.918Z,16.88
2022-08-11T09:12:03.911Z,16.88
2022-08-11T09:13:03.910Z,16.88
2022-08-11T09:14:05.875Z,16.88
2022-08-11T09:15:03.870Z,16.88
2022-08-11T09:16:03.874Z,16.88
2022-08-11T09:17:03.849Z,16.88
2022-08-11T09:18:03.875Z,16.88
2022-08-11T09:19:03.843Z,16.88
2022-08-11T09:20:03.844Z,16.88
2022-08-11T09:21:03.813Z,16.88
2022-08-11T09:22:03.809Z,16.88
2022-08-11T09:23:54.582Z,16.88
2022-08-11T09:24:19.187Z,16.88
2022-08-11T09:25:03.774Z,16.88
2022-08-11T09:26:03.775Z,16.88
2022-08-11T09:27:03.743Z,16.88
2022-08-11T09:28:03.740Z,16.88
2022-08-11T09:29:03.740Z,16.88
2022-08-11T09:30:03.720Z,16.88
2022-08-11T09:31:03.700Z,16.88
2022-08-11T09:32:03.747Z,16.88
2022-08-11T09:33:03.705Z,16.88
2022-08-11T09:34:03.684Z,16.88
2022-08-11T09:35:03.657Z,16.88
2022-08-11T09:36:03.654Z,16.88
2022-08-11T09:37:03.638Z,16.88
2022-08-11T09:38:03.820Z,16.88
2022-08-11T09:39:03.630Z,16.88
2022-08-11T09:40:03.615Z,16.88
2022-08-11T09:41:03.603Z,16.88
2022-08-11T09:42:04.290Z,16.88
2022-08-11T09:43:03.592Z,16.88
2022-08-11T09:44:04.521Z,16.88
2022-08-11T09:45:03.568Z,16.88
2022-08-11T09:46:03.555Z,16.88
2022-08-11T09:47:03.538Z,22.50
2022-08-11T09:48:03.528Z,22.50
2022-08-11T09:49:03.534Z,16.88
2022-08-11T09:50:03.538Z,16.88
2022-08-11T09:51:03.500Z,22.50
2022-08-11T09:52:05.355Z,16.88
2022-08-11T09:53:37.319Z,22.50
2022-08-11T09:54:04.171Z,33.75
2022-08-11T09:55:03.482Z,39.38
2022-08-11T09:56:03.449Z,45.00
2022-08-11T09:57:05.457Z,50.62
2022-08-11T09:58:03.538Z,50.62
2022-08-11T09:59:03.412Z,50.62
2022-08-11T10:00:12.340Z,45.00
2022-08-11T10:01:03.520Z,39.38
2022-08-11T10:02:03.575Z,33.75
2022-08-11T10:03:03.371Z,33.75
2022-08-11T10:04:03.364Z,28.12
2022-08-11T10:05:03.341Z,28.12
2022-08-11T10:06:07.774Z,22.50
2022-08-11T10:07:04.714Z,22.50
2022-08-11T10:08:03.318Z,22.50
2022-08-11T10:09:03.309Z,22.50
2022-08-11T10:10:03.309Z,22.50
2022-08-11T10:11:03.283Z,22.50
2022-08-11T10:12:03.305Z,22.50
2022-08-11T10:13:03.261Z,28.12
2022-08-11T10:14:33.922Z,28.12
2022-08-11T10:15:03.247Z,28.12
2022-08-11T10:16:16.293Z,28.12
2022-08-11T10:17:03.246Z,28.12
2022-08-11T10:18:03.220Z,28.12
2022-08-11T10:19:03.199Z,28.12
2022-08-11T10:20:05.182Z,28.12
2022-08-11T10:21:03.188Z,28.12
2022-08-11T10:22:03.174Z,28.12
2022-08-11T10:23:03.212Z,28.12
2022-08-11T10:24:05.750Z,28.12
2022-08-11T10:25:03.156Z,28.12
2022-08-11T10:26:03.135Z,28.12
2022-08-11T10:28:30.674Z,39.38
2022-08-11T10:29:15.608Z,39.38
2022-08-11T10:30:15.298Z,39.38
2022-08-11T10:31:15.270Z,33.75
2022-08-11T10:32:15.249Z,33.75
2022-08-11T10:33:36.930Z,39.38
2022-08-11T10:34:15.249Z,39.38
2022-08-11T10:35:15.222Z,33.75
2022-08-11T10:36:16.714Z,39.38
2022-08-11T10:37:15.382Z,33.75
2022-08-11T10:38:15.195Z,45.00
2022-08-11T10:39:15.205Z,39.38
2022-08-11T10:40:15.181Z,33.75
2022-08-11T10:41:15.182Z,28.12
2022-08-11T10:42:30.005Z,28.12
2022-08-11T10:44:01.408Z,39.38
2022-08-11T10:44:15.131Z,33.75
2022-08-11T10:45:15.118Z,39.38
2022-08-11T10:46:15.097Z,39.38
2022-08-11T10:47:15.089Z,45.00
2022-08-11T10:48:15.707Z,50.62
2022-08-11T10:49:15.075Z,50.62
2022-08-11T10:50:15.054Z,50.62
2022-08-11T10:51:15.064Z,45.00
2022-08-11T10:52:15.064Z,33.75
2022-08-11T10:53:15.047Z,39.38
2022-08-11T10:54:15.023Z,39.38
2022-08-11T10:55:15.012Z,39.38
2022-08-11T10:56:14.992Z,33.75
2022-08-11T10:57:14.990Z,39.38
2022-08-11T10:58:14.998Z,39.38
2022-08-11T10:59:15.542Z,39.38
2022-08-11T11:00:14.954Z,39.38
2022-08-11T11:01:15.050Z,33.75
2022-08-11T11:02:14.970Z,39.38
2022-08-11T11:03:22.869Z,39.38
2022-08-11T11:04:14.933Z,33.75
2022-08-11T11:05:14.900Z,33.75
2022-08-11T11:06:28.411Z,33.75
2022-08-11T11:07:14.882Z,33.75
2022-08-11T11:08:14.875Z,33.75
2022-08-11T11:09:14.877Z,33.75
2022-08-11T11:10:14.960Z,33.75
2022-08-11T11:11:18.264Z,33.75
2022-08-11T11:12:14.843Z,33.75
2022-08-11T11:13:14.813Z,33.75
2022-08-11T11:14:14.855Z,33.75
2022-08-11T11:15:17.538Z,33.75
2022-08-11T11:16:14.791Z,33.75
2022-08-11T11:17:14.775Z,33.75
2022-08-11T11:18:14.762Z,39.38
2022-08-11T11:19:14.754Z,39.38
2022-08-11T11:20:37.003Z,39.38
2022-08-11T11:21:14.745Z,39.38
2022-08-11T11:22:14.725Z,33.75
2022-08-11T11:23:14.714Z,39.38
2022-08-11T11:24:20.713Z,39.38
2022-08-11T11:25:14.688Z,39.38
2022-08-11T11:26:14.707Z,39.38
2022-08-11T11:27:14.669Z,39.38
2022-08-11T11:28:14.661Z,39.38
2022-08-11T11:29:14.648Z,39.38
2022-08-11T11:30:14.642Z,39.38
2022-08-11T11:31:15.792Z,39.38
2022-08-11T11:32:14.648Z,39.38
2022-08-11T11:33:14.610Z,39.38
2022-08-11T11:34:14.599Z,39.38
2022-08-11T11:35:14.589Z,39.38
2022-08-11T11:36:14.582Z,39.38
2022-08-11T11:37:14.595Z,39.38
2022-08-11T11:38:14.565Z,39.38
2022-08-11T11:39:14.592Z,39.38
2022-08-11T11:40:14.542Z,39.38
2022-08-11T11:41:14.554Z,39.38
2022-08-11T11:42:14.513Z,39.38
2022-08-11T11:43:14.527Z,39.38
2022-08-11T11:44:14.500Z,45.00
2022-08-11T11:45:23.776Z,45.00
2022-08-11T11:46:14.485Z,45.00
2022-08-11T11:47:14.473Z,45.00
2022-08-11T11:48:14.461Z,45.00
2022-08-11T11:49:17.051Z,45.00
2022-08-11T11:50:14.435Z,45.00
2022-08-11T11:51:14.419Z,45.00
2022-08-11T11:52:14.419Z,45.00
2022-08-11T11:53:14.424Z,45.00
2022-08-11T11:54:14.851Z,45.00
2022-08-11T11:55:14.453Z,45.00
2022-08-11T11:56:14.379Z,45.00
2022-08-11T11:57:14.367Z,45.00
2022-08-11T11:58:16.014Z,45.00
2022-08-11T11:59:14.635Z,45.00
2022-08-11T12:00:14.336Z,50.62
2022-08-11T12:01:14.348Z,45.00
2022-08-11T12:02:14.318Z,45.00
2022-08-11T12:03:14.415Z,45.00
2022-08-11T12:04:14.306Z,45.00
2022-08-11T12:05:14.280Z,45.00
2022-08-11T12:06:14.475Z,45.00
2022-08-11T12:07:14.278Z,45.00
2022-08-11T12:08:14.291Z,45.00
2022-08-11T12:09:14.241Z,45.00
2022-08-11T12:10:14.231Z,45.00
2022-08-11T12:11:14.217Z,45.00
2022-08-11T12:12:14.220Z,45.00
2022-08-11T12:13:14.202Z,50.62
2022-08-11T12:14:14.222Z,45.00
2022-08-11T12:15:14.206Z,45.00
2022-08-11T12:16:33.391Z,50.62
2022-08-11T12:17:14.175Z,50.62
2022-08-11T12:18:14.204Z,50.62
2022-08-11T12:19:14.147Z,50.62
2022-08-11T12:20:31.515Z,50.62
2022-08-11T12:21:14.134Z,50.62
2022-08-11T12:22:14.123Z,50.62
2022-08-11T12:23:14.712Z,50.62
2022-08-11T12:24:14.112Z,50.62
2022-08-11T12:25:14.068Z,50.62
2022-08-11T12:26:26.791Z,50.62
2022-08-11T12:27:16.049Z,50.62
2022-08-11T12:28:14.058Z,50.62
2022-08-11T12:29:14.038Z,50.62
2022-08-11T12:30:14.075Z,50.62
2022-08-11T12:31:14.015Z,50.62
2022-08-11T12:32:14.014Z,56.25
2022-08-11T12:33:13.995Z,56.25
2022-08-11T12:34:14.005Z,56.25
2022-08-11T12:35:13.991Z,56.25
2022-08-11T12:36:14.017Z,56.25
2022-08-11T12:37:14.094Z,56.25
2022-08-11T12:38:13.958Z,56.25
2022-08-11T12:39:23.206Z,56.25
2022-08-11T12:40:43.256Z,56.25
2022-08-11T12:41:18.641Z,56.25
2022-08-11T12:42:13.913Z,56.25
2022-08-11T12:43:21.205Z,56.25
2022-08-11T12:44:13.913Z,56.25
2022-08-11T12:45:22.318Z,56.25
2022-08-11T12:46:13.878Z,61.88
2022-08-11T12:47:13.871Z,61.88
2022-08-11T12:49:00.001Z,61.88
2022-08-11T12:49:13.851Z,61.88
2022-08-11T12:50:22.688Z,56.25
2022-08-11T12:51:13.829Z,61.88
2022-08-11T12:52:15.772Z,61.88
2022-08-11T12:53:13.851Z,61.88
2022-08-11T12:54:13.787Z,61.88
2022-08-11T12:55:14.138Z,61.88
2022-08-11T12:56:13.778Z,61.88
2022-08-11T12:57:13.800Z,61.88
2022-08-11T12:58:13.770Z,61.88
2022-08-11T12:59:13.733Z,61.88
2022-08-11T13:00:13.728Z,61.88
2022-08-11T13:01:13.766Z,61.88
2022-08-11T13:02:13.718Z,61.88
2022-08-11T13:03:13.753Z,61.88
2022-08-11T13:04:13.779Z,61.88
2022-08-11T13:05:13.672Z,61.88
2022-08-11T13:06:13.689Z,61.88
2022-08-11T13:07:13.665Z,61.88
2022-08-11T13:08:13.647Z,61.88
2022-08-11T13:09:13.654Z,61.88
2022-08-11T13:10:16.813Z,61.88
2022-08-11T13:11:13.611Z,61.88
2022-08-11T13:12:13.630Z,61.88
2022-08-11T13:13:52.763Z,61.88
2022-08-11T13:14:15.174Z,61.88
2022-08-11T13:15:13.577Z,61.88
2022-08-11T13:16:13.554Z,61.88
2022-08-11T13:17:13.594Z,61.88
2022-08-11T13:18:13.541Z,61.88
2022-08-11T13:19:13.532Z,61.88
2022-08-11T13:20:13.528Z,61.88
2022-08-11T13:21:20.561Z,61.88
2022-08-11T13:22:13.515Z,61.88
2022-08-11T13:23:13.510Z,61.88
2022-08-11T13:24:13.569Z,61.88
2022-08-11T13:25:15.030Z,67.50
2022-08-11T13:26:13.457Z,67.50
2022-08-11T13:27:13.460Z,67.50
2022-08-11T13:28:13.447Z,67.50
2022-08-11T13:29:13.437Z,67.50
2022-08-11T13:30:13.459Z,67.50
2022-08-11T13:31:13.417Z,73.12
2022-08-11T13:32:13.413Z,73.12
2022-08-11T13:33:13.405Z,67.50
2022-08-11T13:34:13.421Z,67.50
2022-08-11T13:35:13.371Z,73.12
2022-08-11T13:36:13.407Z,73.12
2022-08-11T13:37:13.359Z,67.50
2022-08-11T13:38:19.381Z,67.50
2022-08-11T13:39:13.465Z,73.12
2022-08-11T13:40:13.318Z,73.12
2022-08-11T13:41:13.329Z,78.75
2022-08-11T13:42:13.324Z,78.75
2022-08-11T13:43:13.288Z,78.75
2022-08-11T13:44:15.932Z,78.75
2022-08-11T13:45:13.299Z,78.75
2022-08-11T13:46:13.274Z,78.75
2022-08-11T13:47:13.255Z,78.75
2022-08-11T13:48:13.262Z,78.75
2022-08-11T13:49:13.235Z,84.38
2022-08-11T13:50:13.568Z,84.38
2022-08-11T13:51:13.235Z,78.75
2022-08-11T13:52:13.223Z,84.38
2022-08-11T13:53:13.199Z,78.75
2022-08-11T13:54:13.189Z,78.75
2022-08-11T13:55:45.128Z,78.75
2022-08-11T13:56:13.176Z,84.38
2022-08-11T13:57:13.777Z,84.38
2022-08-11T13:58:20.551Z,84.38
2022-08-11T13:59:13.147Z,84.38
2022-08-11T14:00:25.000Z,84.38
2022-08-11T14:02:20.369Z,84.38
2022-08-11T14:02:31.191Z,84.38
2022-08-11T14:03:13.146Z,84.38
2022-08-11T14:04:29.815Z,84.38
2022-08-11T14:05:13.091Z,84.38
2022-08-11T14:06:13.076Z,84.38
2022-08-11T14:07:13.055Z,78.75
2022-08-11T14:08:37.443Z,73.12
2022-08-11T14:09:13.046Z,84.38
2022-08-11T14:10:13.344Z,84.38
2022-08-11T14:12:19.847Z,84.38
2022-08-11T14:12:27.794Z,84.38
2022-08-11T14:13:13.005Z,90.00
2022-08-11T14:14:12.995Z,90.00
2022-08-11T14:15:12.977Z,90.00
2022-08-11T14:16:12.984Z,95.62
2022-08-11T14:17:12.965Z,95.62
2022-08-11T14:18:12.968Z,95.62
2022-08-11T14:19:12.935Z,95.62
2022-08-11T14:20:38.199Z,90.00
2022-08-11T14:21:12.924Z,95.62
2022-08-11T14:22:12.916Z,101.25
2022-08-11T14:23:12.918Z,95.62
2022-08-11T14:24:13.093Z,95.62
2022-08-11T14:25:12.879Z,84.38
2022-08-11T14:26:12.873Z,90.00
2022-08-11T14:28:29.480Z,95.62
2022-08-11T14:28:44.513Z,101.25
2022-08-11T14:29:12.916Z,101.25
2022-08-11T14:30:12.846Z,101.25
2022-08-11T14:31:12.826Z,101.25
2022-08-11T14:32:12.815Z,101.25
2022-08-11T14:33:17.047Z,101.25
2022-08-11T14:34:12.801Z,106.88
2022-08-11T14:35:12.794Z,106.88
2022-08-11T14:36:12.809Z,106.88
2022-08-11T14:37:12.771Z,112.50
2022-08-11T14:38:12.753Z,118.12
2022-08-11T14:39:13.184Z,129.38
2022-08-11T14:40:12.756Z,140.62
2022-08-11T14:41:12.786Z,151.88
2022-08-11T14:42:13.336Z,174.38
2022-08-11T14:43:12.701Z,230.62
2022-08-11T14:44:14.785Z,365.62
2022-08-11T14:45:12.700Z,466.88
2022-08-11T14:46:12.705Z,500.62
2022-08-11T14:47:24.046Z,556.88
2022-08-11T14:48:12.671Z,596.25
2022-08-11T14:49:12.674Z,635.62
2022-08-11T14:50:12.873Z,753.75
2022-08-11T14:51:12.636Z,770.62
2022-08-11T14:52:12.681Z,753.75
2022-08-11T14:53:16.071Z,753.75
2022-08-11T14:54:12.629Z,652.50
2022-08-11T14:55:12.602Z,658.12
2022-08-11T14:56:12.754Z,697.50
2022-08-11T14:57:12.585Z,708.75
2022-08-11T14:58:12.569Z,736.88
2022-08-11T14:59:12.583Z,669.38
2022-08-11T15:00:12.537Z,703.12
2022-08-11T15:01:12.608Z,742.50
2022-08-11T15:02:12.527Z,748.12
2022-08-11T15:03:13.496Z,759.38
2022-08-11T15:04:34.621Z,759.38
2022-08-11T15:05:12.540Z,675.00
2022-08-11T15:06:12.483Z,579.38
2022-08-11T15:07:17.090Z,562.50
2022-08-11T15:08:12.479Z,590.62
2022-08-11T15:09:12.470Z,590.62
2022-08-11T15:10:13.739Z,523.12
2022-08-11T15:11:12.483Z,528.75
2022-08-11T15:12:32.271Z,635.62
2022-08-11T15:13:12.434Z,669.38
2022-08-11T15:14:12.422Z,641.25
2022-08-11T15:15:12.431Z,607.50
2022-08-11T15:16:12.395Z,686.25
2022-08-11T15:17:12.417Z,658.12
2022-08-11T15:18:12.374Z,652.50
2022-08-11T15:19:12.365Z,556.88
2022-08-11T15:20:12.355Z,579.38
2022-08-11T15:21:12.364Z,624.38
2022-08-11T15:22:12.372Z,618.75
2022-08-11T15:23:12.362Z,624.38
2022-08-11T15:24:12.322Z,579.38
2022-08-11T15:25:12.326Z,579.38
2022-08-11T15:26:12.301Z,568.12
2022-08-11T15:27:12.286Z,568.12
2022-08-11T15:28:12.309Z,579.38
2022-08-11T15:29:12.273Z,596.25
2022-08-11T15:30:20.209Z,652.50
2022-08-11T15:31:12.261Z,663.75
2022-08-11T15:32:12.238Z,613.12
2022-08-11T15:33:12.235Z,573.75
2022-08-11T15:34:12.249Z,618.75
2022-08-11T15:35:12.212Z,703.12
2022-08-11T15:36:12.212Z,601.88
2022-08-11T15:37:12.198Z,517.50
2022-08-11T15:38:12.193Z,410.62
2022-08-11T15:39:19.305Z,399.38
2022-08-11T15:40:31.970Z,455.62
2022-08-11T15:41:12.237Z,427.50
2022-08-11T15:42:12.137Z,613.12
2022-08-11T15:43:12.826Z,540.00
2022-08-11T15:44:12.126Z,472.50
2022-08-11T15:45:12.122Z,455.62
2022-08-11T15:46:12.121Z,298.12
2022-08-11T15:47:12.125Z,140.62
2022-08-11T15:48:12.086Z,90.00
2022-08-11T15:49:12.090Z,84.38
2022-08-11T15:50:13.848Z,78.75
2022-08-11T15:51:12.071Z,73.12
2022-08-11T15:52:12.052Z,67.50
2022-08-11T15:53:12.064Z,67.50
2022-08-11T15:54:12.039Z,67.50
2022-08-11T15:55:12.027Z,67.50
2022-08-11T15:56:12.014Z,61.88
2022-08-11T15:57:12.021Z,56.25
2022-08-11T15:58:12.012Z,56.25
2022-08-11T15:59:41.191Z,50.62
2022-08-11T16:00:11.982Z,50.62
2022-08-11T16:01:11.966Z,50.62
2022-08-11T16:02:12.073Z,50.62
2022-08-11T16:03:15.497Z,50.62
2022-08-11T16:04:13.237Z,50.62
2022-08-11T16:05:11.931Z,45.00
2022-08-11T16:06:11.917Z,45.00
2022-08-11T16:07:12.837Z,45.00
2022-08-11T16:08:13.246Z,45.00
2022-08-11T16:09:18.480Z,45.00
2022-08-11T16:10:14.022Z,45.00
2022-08-11T16:11:11.897Z,39.38
2022-08-11T16:12:11.863Z,39.38
2022-08-11T16:13:11.876Z,39.38
2022-08-11T16:14:11.896Z,39.38
2022-08-11T16:15:11.828Z,39.38
2022-08-11T16:16:11.851Z,39.38
2022-08-11T16:17:11.822Z,39.38
2022-08-11T16:18:11.800Z,39.38
2022-08-11T16:19:11.778Z,39.38
2022-08-11T16:20:11.799Z,39.38
2022-08-11T16:21:11.781Z,39.38
2022-08-11T16:22:11.762Z,39.38
2022-08-11T16:23:11.760Z,33.75
2022-08-11T16:27:01.925Z,33.75
2022-08-11T16:27:14.515Z,33.75
2022-08-11T16:27:32.124Z,33.75
2022-08-11T16:28:19.470Z,33.75
2022-08-11T16:29:19.457Z,33.75
2022-08-11T16:30:19.458Z,33.75
2022-08-11T16:31:19.433Z,28.12
2022-08-11T16:32:19.449Z,28.12
2022-08-11T16:33:48.287Z,28.12
2022-08-11T16:34:22.348Z,28.12
2022-08-11T16:35:19.424Z,28.12
2022-08-11T16:36:19.390Z,28.12
2022-08-11T16:37:19.364Z,28.12
2022-08-11T16:38:19.382Z,28.12
2022-08-11T16:39:19.413Z,28.12
2022-08-11T16:40:19.353Z,22.50
2022-08-11T16:41:19.345Z,22.50
2022-08-11T16:43:06.149Z,22.50
2022-08-11T16:43:19.308Z,22.50
2022-08-11T16:44:19.314Z,22.50
2022-08-11T16:45:19.344Z,22.50
2022-08-11T16:46:19.273Z,22.50
2022-08-11T16:48:33.209Z,22.50
2022-08-11T16:48:42.390Z,22.50
2022-08-11T16:49:19.255Z,22.50